sensor_id;sensor_type;location;lat;lon;timestamp;P1;durP1;ratioP1;P2;durP2;ratioP2
8632;SDS011;4354;49.832;10.746;2023-03-01T00:03:32;28.10;;;17.43;;
8632;SDS011;4354;49.832;10.746;2023-03-01T00:06:00;28.43;;;17.17;;
8632;SDS011;4354;49.832;10.746;2023-03-01T00:08:27;27.67;;;18.00;;
8632;SDS011;4354;49.832;10.746;2023-03-01T00:11:07;27.20;;;17.67;;
8632;SDS011;4354;49.832;10.746;2023-03-01T00:13:40;25.40;;;16.70;;
8632;SDS011;4354;49.832;10.746;2023-03-01T00:16:09;25.37;;;17.10;;
8632;SDS011;4354;49.832;10.746;2023-03-01T00:18:39;27.17;;;17.63;;
8632;SDS011;4354;49.832;10.746;2023-03-01T00:21:06;27.73;;;17.90;;
8632;SDS011;4354;49.832;10.746;2023-03-01T00:23:36;29.63;;;18.60;;
8632;SDS011;4354;49.832;10.746;2023-03-01T00:26:07;26.40;;;17.60;;
8632;SDS011;4354;49.832;10.746;2023-03-01T00:28:36;25.40;;;16.93;;
8632;SDS011;4354;49.832;10.746;2023-03-01T00:31:04;26.00;;;18.07;;
8632;SDS011;4354;49.832;10.746;2023-03-01T00:33:31;27.87;;;17.10;;
8632;SDS011;4354;49.832;10.746;2023-03-01T00:35:58;27.03;;;17.80;;
8632;SDS011;4354;49.832;10.746;2023-03-01T00:38:26;26.17;;;16.83;;
8632;SDS011;4354;49.832;10.746;2023-03-01T00:40:53;32.13;;;18.97;;
8632;SDS011;4354;49.832;10.746;2023-03-01T00:43:20;31.90;;;20.80;;
8632;SDS011;4354;49.832;10.746;2023-03-01T00:45:47;35.70;;;21.70;;
8632;SDS011;4354;49.832;10.746;2023-03-01T00:48:14;29.97;;;18.80;;
8632;SDS011;4354;49.832;10.746;2023-03-01T00:50:40;31.27;;;19.00;;
8632;SDS011;4354;49.832;10.746;2023-03-01T00:53:07;28.53;;;17.80;;
8632;SDS011;4354;49.832;10.746;2023-03-01T00:55:34;30.40;;;17.80;;
8632;SDS011;4354;49.832;10.746;2023-03-01T00:58:02;23.77;;;16.23;;
8632;SDS011;4354;49.832;10.746;2023-03-01T01:00:29;24.10;;;16.43;;
8632;SDS011;4354;49.832;10.746;2023-03-01T01:02:56;26.57;;;17.60;;
8632;SDS011;4354;49.832;10.746;2023-03-01T01:05:22;26.07;;;16.90;;
8632;SDS011;4354;49.832;10.746;2023-03-01T01:07:49;22.77;;;15.50;;
8632;SDS011;4354;49.832;10.746;2023-03-01T01:10:16;27.57;;;17.20;;
8632;SDS011;4354;49.832;10.746;2023-03-01T01:12:44;24.73;;;16.17;;
8632;SDS011;4354;49.832;10.746;2023-03-01T01:15:11;24.17;;;15.93;;
8632;SDS011;4354;49.832;10.746;2023-03-01T01:17:40;27.00;;;17.30;;
8632;SDS011;4354;49.832;10.746;2023-03-01T01:20:07;26.20;;;16.90;;
8632;SDS011;4354;49.832;10.746;2023-03-01T01:22:34;27.60;;;17.20;;
8632;SDS011;4354;49.832;10.746;2023-03-01T01:25:01;24.87;;;16.43;;
8632;SDS011;4354;49.832;10.746;2023-03-01T01:27:28;27.57;;;17.50;;
8632;SDS011;4354;49.832;10.746;2023-03-01T01:29:55;26.67;;;16.30;;
8632;SDS011;4354;49.832;10.746;2023-03-01T01:32:22;26.10;;;17.23;;
8632;SDS011;4354;49.832;10.746;2023-03-01T01:34:52;29.43;;;17.70;;
8632;SDS011;4354;49.832;10.746;2023-03-01T01:37:18;27.63;;;16.93;;
8632;SDS011;4354;49.832;10.746;2023-03-01T01:39:45;25.20;;;16.70;;
8632;SDS011;4354;49.832;10.746;2023-03-01T01:42:14;27.80;;;16.73;;
8632;SDS011;4354;49.832;10.746;2023-03-01T01:44:45;27.43;;;17.33;;
8632;SDS011;4354;49.832;10.746;2023-03-01T01:47:14;25.53;;;16.63;;
8632;SDS011;4354;49.832;10.746;2023-03-01T01:52:22;25.60;;;16.47;;
8632;SDS011;4354;49.832;10.746;2023-03-01T01:55:00;25.87;;;17.37;;
8632;SDS011;4354;49.832;10.746;2023-03-01T01:57:38;24.17;;;14.67;;
8632;SDS011;4354;49.832;10.746;2023-03-01T02:00:17;26.63;;;16.70;;
8632;SDS011;4354;49.832;10.746;2023-03-01T02:02:50;25.60;;;15.63;;
8632;SDS011;4354;49.832;10.746;2023-03-01T02:05:24;24.33;;;16.50;;
8632;SDS011;4354;49.832;10.746;2023-03-01T02:08:02;24.27;;;15.73;;
8632;SDS011;4354;49.832;10.746;2023-03-01T02:10:29;26.60;;;16.90;;
8632;SDS011;4354;49.832;10.746;2023-03-01T02:13:01;25.23;;;17.03;;
8632;SDS011;4354;49.832;10.746;2023-03-01T02:15:36;28.03;;;17.73;;
8632;SDS011;4354;49.832;10.746;2023-03-01T02:18:04;28.17;;;18.10;;
8632;SDS011;4354;49.832;10.746;2023-03-01T02:20:54;25.17;;;16.00;;
8632;SDS011;4354;49.832;10.746;2023-03-01T02:23:30;27.47;;;17.23;;
8632;SDS011;4354;49.832;10.746;2023-03-01T02:26:09;25.73;;;17.27;;
8632;SDS011;4354;49.832;10.746;2023-03-01T02:28:41;28.43;;;17.67;;
8632;SDS011;4354;49.832;10.746;2023-03-01T02:31:10;26.10;;;16.90;;
8632;SDS011;4354;49.832;10.746;2023-03-01T02:34:00;24.93;;;16.97;;
8632;SDS011;4354;49.832;10.746;2023-03-01T02:36:31;25.20;;;16.00;;
8632;SDS011;4354;49.832;10.746;2023-03-01T02:39:03;28.00;;;16.53;;
8632;SDS011;4354;49.832;10.746;2023-03-01T02:41:34;30.07;;;16.60;;
8632;SDS011;4354;49.832;10.746;2023-03-01T02:44:04;24.53;;;16.33;;
8632;SDS011;4354;49.832;10.746;2023-03-01T02:46:31;27.23;;;17.77;;
8632;SDS011;4354;49.832;10.746;2023-03-01T02:48:58;26.37;;;17.37;;
8632;SDS011;4354;49.832;10.746;2023-03-01T02:54:41;23.23;;;15.97;;
8632;SDS011;4354;49.832;10.746;2023-03-01T02:57:33;23.43;;;15.90;;
8632;SDS011;4354;49.832;10.746;2023-03-01T03:00:05;30.17;;;18.00;;
8632;SDS011;4354;49.832;10.746;2023-03-01T03:02:36;29.90;;;18.20;;
8632;SDS011;4354;49.832;10.746;2023-03-01T03:05:03;28.73;;;18.43;;
8632;SDS011;4354;49.832;10.746;2023-03-01T03:07:33;29.00;;;17.77;;
8632;SDS011;4354;49.832;10.746;2023-03-01T03:10:01;27.97;;;17.50;;
8632;SDS011;4354;49.832;10.746;2023-03-01T03:12:29;27.43;;;16.33;;
8632;SDS011;4354;49.832;10.746;2023-03-01T03:14:56;28.27;;;17.07;;
8632;SDS011;4354;49.832;10.746;2023-03-01T03:17:22;27.37;;;17.43;;
8632;SDS011;4354;49.832;10.746;2023-03-01T03:19:49;28.90;;;17.60;;
8632;SDS011;4354;49.832;10.746;2023-03-01T03:22:16;27.00;;;17.00;;
8632;SDS011;4354;49.832;10.746;2023-03-01T03:24:43;26.47;;;16.57;;
8632;SDS011;4354;49.832;10.746;2023-03-01T03:27:09;25.90;;;17.73;;
8632;SDS011;4354;49.832;10.746;2023-03-01T03:29:36;27.13;;;17.70;;
8632;SDS011;4354;49.832;10.746;2023-03-01T03:32:03;30.43;;;17.70;;
8632;SDS011;4354;49.832;10.746;2023-03-01T03:34:30;28.43;;;16.80;;
8632;SDS011;4354;49.832;10.746;2023-03-01T03:36:57;25.90;;;16.50;;
8632;SDS011;4354;49.832;10.746;2023-03-01T03:39:26;26.20;;;16.80;;
8632;SDS011;4354;49.832;10.746;2023-03-01T03:41:53;28.53;;;18.07;;
8632;SDS011;4354;49.832;10.746;2023-03-01T03:44:20;27.17;;;17.93;;
8632;SDS011;4354;49.832;10.746;2023-03-01T03:46:47;29.10;;;17.70;;
8632;SDS011;4354;49.832;10.746;2023-03-01T03:49:14;26.27;;;16.93;;
8632;SDS011;4354;49.832;10.746;2023-03-01T03:51:41;28.87;;;17.53;;
8632;SDS011;4354;49.832;10.746;2023-03-01T03:54:07;26.17;;;16.93;;
8632;SDS011;4354;49.832;10.746;2023-03-01T03:56:34;27.40;;;18.17;;
8632;SDS011;4354;49.832;10.746;2023-03-01T03:59:01;30.70;;;17.90;;
8632;SDS011;4354;49.832;10.746;2023-03-01T04:01:27;27.70;;;16.40;;
8632;SDS011;4354;49.832;10.746;2023-03-01T04:03:54;27.20;;;17.33;;
8632;SDS011;4354;49.832;10.746;2023-03-01T04:06:21;26.87;;;17.03;;
8632;SDS011;4354;49.832;10.746;2023-03-01T04:08:48;27.60;;;18.10;;
8632;SDS011;4354;49.832;10.746;2023-03-01T04:11:17;27.83;;;17.67;;
8632;SDS011;4354;49.832;10.746;2023-03-01T04:13:54;28.83;;;16.53;;
8632;SDS011;4354;49.832;10.746;2023-03-01T04:16:22;28.00;;;17.07;;
8632;SDS011;4354;49.832;10.746;2023-03-01T04:18:50;27.23;;;17.00;;
8632;SDS011;4354;49.832;10.746;2023-03-01T04:21:19;31.40;;;18.10;;
8632;SDS011;4354;49.832;10.746;2023-03-01T04:23:46;27.57;;;17.30;;
8632;SDS011;4354;49.832;10.746;2023-03-01T04:26:13;25.90;;;16.70;;
8632;SDS011;4354;49.832;10.746;2023-03-01T04:28:40;27.53;;;18.13;;
8632;SDS011;4354;49.832;10.746;2023-03-01T04:31:12;27.87;;;17.97;;
8632;SDS011;4354;49.832;10.746;2023-03-01T04:33:43;30.77;;;18.77;;
8632;SDS011;4354;49.832;10.746;2023-03-01T04:36:10;32.50;;;19.43;;
8632;SDS011;4354;49.832;10.746;2023-03-01T04:38:38;29.87;;;19.17;;
8632;SDS011;4354;49.832;10.746;2023-03-01T04:41:06;29.20;;;18.90;;
8632;SDS011;4354;49.832;10.746;2023-03-01T04:43:34;33.57;;;19.70;;
8632;SDS011;4354;49.832;10.746;2023-03-01T04:46:02;29.30;;;18.27;;
8632;SDS011;4354;49.832;10.746;2023-03-01T04:48:35;27.07;;;17.93;;
8632;SDS011;4354;49.832;10.746;2023-03-01T04:51:03;30.67;;;18.30;;
8632;SDS011;4354;49.832;10.746;2023-03-01T04:53:31;31.33;;;21.33;;
8632;SDS011;4354;49.832;10.746;2023-03-01T04:55:59;28.73;;;18.37;;
8632;SDS011;4354;49.832;10.746;2023-03-01T04:58:26;27.67;;;18.30;;
8632;SDS011;4354;49.832;10.746;2023-03-01T05:00:54;29.57;;;18.63;;
8632;SDS011;4354;49.832;10.746;2023-03-01T05:03:25;30.50;;;18.23;;
8632;SDS011;4354;49.832;10.746;2023-03-01T05:05:53;27.07;;;17.47;;
8632;SDS011;4354;49.832;10.746;2023-03-01T05:08:20;28.83;;;18.73;;
8632;SDS011;4354;49.832;10.746;2023-03-01T05:10:51;28.97;;;17.70;;
8632;SDS011;4354;49.832;10.746;2023-03-01T05:13:19;26.90;;;16.70;;
8632;SDS011;4354;49.832;10.746;2023-03-01T05:15:57;27.90;;;18.07;;
8632;SDS011;4354;49.832;10.746;2023-03-01T05:18:26;29.30;;;17.73;;
8632;SDS011;4354;49.832;10.746;2023-03-01T05:20:55;25.40;;;17.20;;
8632;SDS011;4354;49.832;10.746;2023-03-01T05:23:24;29.10;;;18.20;;
8632;SDS011;4354;49.832;10.746;2023-03-01T05:25:51;28.50;;;18.73;;
8632;SDS011;4354;49.832;10.746;2023-03-01T05:28:19;32.13;;;18.90;;
8632;SDS011;4354;49.832;10.746;2023-03-01T05:30:46;28.67;;;18.03;;
8632;SDS011;4354;49.832;10.746;2023-03-01T05:33:13;26.30;;;17.50;;
8632;SDS011;4354;49.832;10.746;2023-03-01T05:35:40;27.50;;;17.90;;
8632;SDS011;4354;49.832;10.746;2023-03-01T05:38:09;30.63;;;18.30;;
8632;SDS011;4354;49.832;10.746;2023-03-01T05:40:40;29.00;;;18.27;;
8632;SDS011;4354;49.832;10.746;2023-03-01T05:43:11;28.27;;;18.87;;
8632;SDS011;4354;49.832;10.746;2023-03-01T05:45:38;31.07;;;20.17;;
8632;SDS011;4354;49.832;10.746;2023-03-01T05:48:06;30.00;;;20.23;;
8632;SDS011;4354;49.832;10.746;2023-03-01T05:50:38;27.47;;;18.07;;
8632;SDS011;4354;49.832;10.746;2023-03-01T05:55:37;30.20;;;18.43;;
8632;SDS011;4354;49.832;10.746;2023-03-01T05:58:06;28.50;;;18.30;;
8632;SDS011;4354;49.832;10.746;2023-03-01T06:00:37;26.80;;;17.70;;
8632;SDS011;4354;49.832;10.746;2023-03-01T06:03:04;30.00;;;19.67;;
8632;SDS011;4354;49.832;10.746;2023-03-01T06:05:31;30.10;;;18.30;;
8632;SDS011;4354;49.832;10.746;2023-03-01T06:07:59;31.10;;;19.90;;
8632;SDS011;4354;49.832;10.746;2023-03-01T06:10:38;34.17;;;22.03;;
8632;SDS011;4354;49.832;10.746;2023-03-01T06:13:05;31.13;;;20.33;;
8632;SDS011;4354;49.832;10.746;2023-03-01T06:15:32;31.40;;;20.23;;
8632;SDS011;4354;49.832;10.746;2023-03-01T06:17:59;32.93;;;20.17;;
8632;SDS011;4354;49.832;10.746;2023-03-01T06:20:27;33.33;;;19.67;;
8632;SDS011;4354;49.832;10.746;2023-03-01T06:22:54;30.17;;;20.03;;
8632;SDS011;4354;49.832;10.746;2023-03-01T06:25:22;33.27;;;20.03;;
8632;SDS011;4354;49.832;10.746;2023-03-01T06:27:51;30.93;;;19.00;;
8632;SDS011;4354;49.832;10.746;2023-03-01T06:30:19;28.50;;;18.10;;
8632;SDS011;4354;49.832;10.746;2023-03-01T06:32:47;27.47;;;18.63;;
8632;SDS011;4354;49.832;10.746;2023-03-01T06:35:15;29.87;;;20.43;;
8632;SDS011;4354;49.832;10.746;2023-03-01T06:37:46;30.80;;;19.60;;
8632;SDS011;4354;49.832;10.746;2023-03-01T06:40:14;29.20;;;19.80;;
8632;SDS011;4354;49.832;10.746;2023-03-01T06:42:42;31.63;;;19.80;;
8632;SDS011;4354;49.832;10.746;2023-03-01T06:45:10;29.37;;;18.63;;
8632;SDS011;4354;49.832;10.746;2023-03-01T06:47:37;29.67;;;19.10;;
8632;SDS011;4354;49.832;10.746;2023-03-01T06:50:05;31.90;;;20.63;;
8632;SDS011;4354;49.832;10.746;2023-03-01T06:52:32;35.07;;;22.57;;
8632;SDS011;4354;49.832;10.746;2023-03-01T06:54:59;37.73;;;23.83;;
8632;SDS011;4354;49.832;10.746;2023-03-01T06:57:26;31.37;;;20.37;;
8632;SDS011;4354;49.832;10.746;2023-03-01T06:59:54;30.47;;;20.10;;
8632;SDS011;4354;49.832;10.746;2023-03-01T07:02:21;27.37;;;18.73;;
8632;SDS011;4354;49.832;10.746;2023-03-01T07:04:51;33.13;;;19.67;;
8632;SDS011;4354;49.832;10.746;2023-03-01T07:07:18;26.70;;;18.37;;
8632;SDS011;4354;49.832;10.746;2023-03-01T07:09:45;28.30;;;18.67;;
8632;SDS011;4354;49.832;10.746;2023-03-01T07:12:13;27.60;;;17.67;;
8632;SDS011;4354;49.832;10.746;2023-03-01T07:14:40;27.40;;;17.20;;
8632;SDS011;4354;49.832;10.746;2023-03-01T07:17:06;29.60;;;18.37;;
8632;SDS011;4354;49.832;10.746;2023-03-01T07:19:33;26.17;;;16.57;;
8632;SDS011;4354;49.832;10.746;2023-03-01T07:22:00;25.57;;;17.90;;
8632;SDS011;4354;49.832;10.746;2023-03-01T07:24:27;27.93;;;18.07;;
8632;SDS011;4354;49.832;10.746;2023-03-01T07:26:54;28.03;;;17.90;;
8632;SDS011;4354;49.832;10.746;2023-03-01T07:29:21;27.03;;;18.37;;
8632;SDS011;4354;49.832;10.746;2023-03-01T07:31:48;31.63;;;19.40;;
8632;SDS011;4354;49.832;10.746;2023-03-01T07:34:15;26.73;;;17.27;;
8632;SDS011;4354;49.832;10.746;2023-03-01T07:36:42;22.30;;;16.57;;
8632;SDS011;4354;49.832;10.746;2023-03-01T07:39:11;25.07;;;16.80;;
8632;SDS011;4354;49.832;10.746;2023-03-01T07:41:38;22.50;;;16.50;;
8632;SDS011;4354;49.832;10.746;2023-03-01T07:44:06;22.37;;;15.77;;
8632;SDS011;4354;49.832;10.746;2023-03-01T07:46:32;21.97;;;15.43;;
8632;SDS011;4354;49.832;10.746;2023-03-01T07:48:59;19.87;;;15.17;;
8632;SDS011;4354;49.832;10.746;2023-03-01T07:51:26;18.97;;;15.17;;
8632;SDS011;4354;49.832;10.746;2023-03-01T07:53:53;18.07;;;13.20;;
8632;SDS011;4354;49.832;10.746;2023-03-01T07:56:20;14.93;;;12.87;;
8632;SDS011;4354;49.832;10.746;2023-03-01T07:58:48;16.70;;;12.97;;
8632;SDS011;4354;49.832;10.746;2023-03-01T08:01:17;17.67;;;13.57;;
8632;SDS011;4354;49.832;10.746;2023-03-01T08:03:45;15.07;;;13.35;;
8632;SDS011;4354;49.832;10.746;2023-03-01T08:06:12;16.05;;;14.45;;
8632;SDS011;4354;49.832;10.746;2023-03-01T08:08:41;15.20;;;13.60;;
8632;SDS011;4354;49.832;10.746;2023-03-01T08:11:09;18.75;;;16.42;;
8632;SDS011;4354;49.832;10.746;2023-03-01T08:13:37;31.15;;;21.60;;
8632;SDS011;4354;49.832;10.746;2023-03-01T08:16:06;17.45;;;15.15;;
8632;SDS011;4354;49.832;10.746;2023-03-01T08:18:42;15.50;;;14.00;;
8632;SDS011;4354;49.832;10.746;2023-03-01T08:21:10;15.70;;;14.10;;
8632;SDS011;4354;49.832;10.746;2023-03-01T08:23:39;16.30;;;14.52;;
8632;SDS011;4354;49.832;10.746;2023-03-01T08:26:17;16.45;;;14.52;;
8632;SDS011;4354;49.832;10.746;2023-03-01T08:28:46;15.27;;;13.77;;
8632;SDS011;4354;49.832;10.746;2023-03-01T08:33:49;16.65;;;15.23;;
8632;SDS011;4354;49.832;10.746;2023-03-01T08:36:25;15.68;;;14.13;;
8632;SDS011;4354;49.832;10.746;2023-03-01T08:38:54;16.30;;;14.73;;
8632;SDS011;4354;49.832;10.746;2023-03-01T08:41:21;15.77;;;14.18;;
8632;SDS011;4354;49.832;10.746;2023-03-01T08:43:48;15.05;;;13.65;;
8632;SDS011;4354;49.832;10.746;2023-03-01T08:46:15;15.00;;;13.60;;
8632;SDS011;4354;49.832;10.746;2023-03-01T08:48:42;15.27;;;13.73;;
8632;SDS011;4354;49.832;10.746;2023-03-01T08:51:10;15.55;;;14.05;;
8632;SDS011;4354;49.832;10.746;2023-03-01T08:53:39;15.75;;;14.25;;
8632;SDS011;4354;49.832;10.746;2023-03-01T08:56:07;16.23;;;14.52;;
8632;SDS011;4354;49.832;10.746;2023-03-01T08:58:34;15.95;;;14.30;;
8632;SDS011;4354;49.832;10.746;2023-03-01T09:01:06;16.00;;;14.50;;
8632;SDS011;4354;49.832;10.746;2023-03-01T09:03:37;19.20;;;17.15;;
8632;SDS011;4354;49.832;10.746;2023-03-01T09:06:05;18.35;;;16.65;;
8632;SDS011;4354;49.832;10.746;2023-03-01T09:08:34;20.75;;;18.45;;
8632;SDS011;4354;49.832;10.746;2023-03-01T09:11:03;25.48;;;20.58;;
8632;SDS011;4354;49.832;10.746;2023-03-01T09:13:32;17.35;;;15.57;;
8632;SDS011;4354;49.832;10.746;2023-03-01T09:16:00;18.77;;;16.77;;
8632;SDS011;4354;49.832;10.746;2023-03-01T09:18:29;16.10;;;14.60;;
8632;SDS011;4354;49.832;10.746;2023-03-01T09:21:03;22.42;;;20.17;;
8632;SDS011;4354;49.832;10.746;2023-03-01T09:23:34;16.67;;;15.00;;
8632;SDS011;4354;49.832;10.746;2023-03-01T09:26:05;24.30;;;21.80;;
8632;SDS011;4354;49.832;10.746;2023-03-01T09:28:35;17.15;;;15.65;;
8632;SDS011;4354;49.832;10.746;2023-03-01T09:31:02;18.55;;;16.88;;
8632;SDS011;4354;49.832;10.746;2023-03-01T09:33:31;18.70;;;16.80;;
8632;SDS011;4354;49.832;10.746;2023-03-01T09:35:59;17.88;;;16.02;;
8632;SDS011;4354;49.832;10.746;2023-03-01T09:38:30;16.52;;;14.82;;
8632;SDS011;4354;49.832;10.746;2023-03-01T09:40:57;18.83;;;15.57;;
8632;SDS011;4354;49.832;10.746;2023-03-01T09:43:29;17.70;;;15.98;;
8632;SDS011;4354;49.832;10.746;2023-03-01T09:46:08;17.58;;;15.82;;
8632;SDS011;4354;49.832;10.746;2023-03-01T09:48:57;17.60;;;15.95;;
8632;SDS011;4354;49.832;10.746;2023-03-01T09:51:32;17.95;;;16.23;;
8632;SDS011;4354;49.832;10.746;2023-03-01T09:54:01;16.65;;;15.05;;
8632;SDS011;4354;49.832;10.746;2023-03-01T09:56:32;16.77;;;15.25;;
8632;SDS011;4354;49.832;10.746;2023-03-01T10:04:28;17.77;;;15.15;;
8632;SDS011;4354;49.832;10.746;2023-03-01T10:09:40;18.00;;;16.20;;
8632;SDS011;4354;49.832;10.746;2023-03-01T10:12:10;17.55;;;15.80;;
8632;SDS011;4354;49.832;10.746;2023-03-01T10:14:44;15.82;;;14.40;;
8632;SDS011;4354;49.832;10.746;2023-03-01T10:17:47;18.42;;;16.27;;
8632;SDS011;4354;49.832;10.746;2023-03-01T10:20:25;16.60;;;15.00;;
8632;SDS011;4354;49.832;10.746;2023-03-01T10:22:59;17.60;;;15.90;;
8632;SDS011;4354;49.832;10.746;2023-03-01T10:28:12;17.45;;;15.73;;
8632;SDS011;4354;49.832;10.746;2023-03-01T10:30:46;18.45;;;15.50;;
8632;SDS011;4354;49.832;10.746;2023-03-01T10:36:03;16.92;;;15.38;;
8632;SDS011;4354;49.832;10.746;2023-03-01T10:38:30;17.63;;;15.82;;
8632;SDS011;4354;49.832;10.746;2023-03-01T10:41:13;16.65;;;14.98;;
8632;SDS011;4354;49.832;10.746;2023-03-01T10:43:50;16.83;;;15.25;;
8632;SDS011;4354;49.832;10.746;2023-03-01T10:49:23;16.17;;;14.57;;
8632;SDS011;4354;49.832;10.746;2023-03-01T10:51:52;16.83;;;15.18;;
8632;SDS011;4354;49.832;10.746;2023-03-01T10:54:30;17.70;;;15.85;;
8632;SDS011;4354;49.832;10.746;2023-03-01T10:57:02;17.23;;;15.57;;
8632;SDS011;4354;49.832;10.746;2023-03-01T10:59:34;15.93;;;14.35;;
8632;SDS011;4354;49.832;10.746;2023-03-01T11:07:51;17.90;;;16.05;;
8632;SDS011;4354;49.832;10.746;2023-03-01T11:10:29;16.90;;;15.40;;
8632;SDS011;4354;49.832;10.746;2023-03-01T11:13:14;16.85;;;15.18;;
8632;SDS011;4354;49.832;10.746;2023-03-01T11:15:43;17.23;;;15.52;;
8632;SDS011;4354;49.832;10.746;2023-03-01T11:18:29;17.15;;;15.45;;
8632;SDS011;4354;49.832;10.746;2023-03-01T11:21:13;17.42;;;15.60;;
8632;SDS011;4354;49.832;10.746;2023-03-01T11:23:41;17.52;;;15.80;;
8632;SDS011;4354;49.832;10.746;2023-03-01T11:26:11;18.08;;;16.10;;
8632;SDS011;4354;49.832;10.746;2023-03-01T11:28:40;16.40;;;14.25;;
8632;SDS011;4354;49.832;10.746;2023-03-01T11:31:10;15.75;;;14.20;;
8632;SDS011;4354;49.832;10.746;2023-03-01T11:38:57;16.27;;;14.65;;
8632;SDS011;4354;49.832;10.746;2023-03-01T11:41:32;16.95;;;15.15;;
8632;SDS011;4354;49.832;10.746;2023-03-01T11:44:10;16.00;;;14.40;;
8632;SDS011;4354;49.832;10.746;2023-03-01T11:46:50;16.33;;;14.68;;
8632;SDS011;4354;49.832;10.746;2023-03-01T12:18:21;16.85;;;14.93;;
8632;SDS011;4354;49.832;10.746;2023-03-01T12:26:31;20.45;;;17.70;;
8632;SDS011;4354;49.832;10.746;2023-03-01T12:42:33;16.50;;;14.25;;
8632;SDS011;4354;49.832;10.746;2023-03-01T12:50:42;17.83;;;14.40;;
8632;SDS011;4354;49.832;10.746;2023-03-01T12:53:24;17.25;;;14.50;;
8632;SDS011;4354;49.832;10.746;2023-03-01T12:55:53;18.02;;;15.63;;
8632;SDS011;4354;49.832;10.746;2023-03-01T12:58:33;22.05;;;15.98;;
8632;SDS011;4354;49.832;10.746;2023-03-01T13:17:51;16.58;;;14.05;;
8632;SDS011;4354;49.832;10.746;2023-03-01T13:20:24;17.25;;;13.70;;
8632;SDS011;4354;49.832;10.746;2023-03-01T13:23:03;16.65;;;14.02;;
8632;SDS011;4354;49.832;10.746;2023-03-01T13:25:33;17.38;;;14.52;;
8632;SDS011;4354;49.832;10.746;2023-03-01T13:33:57;15.02;;;13.43;;
8632;SDS011;4354;49.832;10.746;2023-03-01T13:39:04;17.85;;;14.02;;
8632;SDS011;4354;49.832;10.746;2023-03-01T13:41:53;15.70;;;13.27;;
8632;SDS011;4354;49.832;10.746;2023-03-01T13:44:35;20.65;;;15.15;;
8632;SDS011;4354;49.832;10.746;2023-03-01T13:49:45;19.17;;;13.88;;
8632;SDS011;4354;49.832;10.746;2023-03-01T13:58:15;18.23;;;13.97;;
8632;SDS011;4354;49.832;10.746;2023-03-01T14:00:46;18.33;;;13.47;;
8632;SDS011;4354;49.832;10.746;2023-03-01T14:03:17;16.17;;;13.60;;
8632;SDS011;4354;49.832;10.746;2023-03-01T14:08:42;16.57;;;13.03;;
8632;SDS011;4354;49.832;10.746;2023-03-01T14:17:16;16.50;;;12.37;;
8632;SDS011;4354;49.832;10.746;2023-03-01T14:19:47;16.80;;;12.20;;
8632;SDS011;4354;49.832;10.746;2023-03-01T14:22:27;15.93;;;12.87;;
8632;SDS011;4354;49.832;10.746;2023-03-01T14:25:02;18.53;;;15.43;;
8632;SDS011;4354;49.832;10.746;2023-03-01T14:27:42;16.27;;;12.40;;
8632;SDS011;4354;49.832;10.746;2023-03-01T14:30:14;15.33;;;12.00;;
8632;SDS011;4354;49.832;10.746;2023-03-01T14:32:56;15.63;;;11.50;;
8632;SDS011;4354;49.832;10.746;2023-03-01T14:35:26;13.60;;;11.30;;
8632;SDS011;4354;49.832;10.746;2023-03-01T14:37:56;16.47;;;11.53;;
8632;SDS011;4354;49.832;10.746;2023-03-01T14:40:25;15.97;;;11.90;;
8632;SDS011;4354;49.832;10.746;2023-03-01T14:42:56;14.53;;;11.60;;
8632;SDS011;4354;49.832;10.746;2023-03-01T14:45:26;13.17;;;11.33;;
8632;SDS011;4354;49.832;10.746;2023-03-01T14:47:55;13.17;;;10.97;;
8632;SDS011;4354;49.832;10.746;2023-03-01T14:50:27;13.30;;;11.37;;
8632;SDS011;4354;49.832;10.746;2023-03-01T14:53:00;16.00;;;10.87;;
8632;SDS011;4354;49.832;10.746;2023-03-01T14:55:36;14.77;;;11.63;;
8632;SDS011;4354;49.832;10.746;2023-03-01T14:58:14;13.87;;;11.27;;
8632;SDS011;4354;49.832;10.746;2023-03-01T15:00:52;16.80;;;13.13;;
8632;SDS011;4354;49.832;10.746;2023-03-01T15:03:37;17.13;;;11.87;;
8632;SDS011;4354;49.832;10.746;2023-03-01T15:06:14;17.77;;;13.70;;
8632;SDS011;4354;49.832;10.746;2023-03-01T15:08:46;16.63;;;12.50;;
8632;SDS011;4354;49.832;10.746;2023-03-01T15:11:21;15.80;;;11.97;;
8632;SDS011;4354;49.832;10.746;2023-03-01T15:13:49;14.63;;;11.13;;
8632;SDS011;4354;49.832;10.746;2023-03-01T15:16:20;13.57;;;11.00;;
8632;SDS011;4354;49.832;10.746;2023-03-01T15:18:57;15.03;;;11.77;;
8632;SDS011;4354;49.832;10.746;2023-03-01T15:23:56;17.47;;;12.07;;
8632;SDS011;4354;49.832;10.746;2023-03-01T15:26:39;16.90;;;11.43;;
8632;SDS011;4354;49.832;10.746;2023-03-01T15:29:35;17.40;;;12.10;;
8632;SDS011;4354;49.832;10.746;2023-03-01T15:34:57;14.30;;;11.20;;
8632;SDS011;4354;49.832;10.746;2023-03-01T15:37:40;17.20;;;12.43;;
8632;SDS011;4354;49.832;10.746;2023-03-01T15:40:21;16.90;;;12.37;;
8632;SDS011;4354;49.832;10.746;2023-03-01T15:43:03;17.93;;;12.23;;
8632;SDS011;4354;49.832;10.746;2023-03-01T15:45:32;15.83;;;12.00;;
8632;SDS011;4354;49.832;10.746;2023-03-01T15:48:05;14.57;;;12.07;;
8632;SDS011;4354;49.832;10.746;2023-03-01T15:50:42;15.07;;;11.90;;
8632;SDS011;4354;49.832;10.746;2023-03-01T15:53:12;16.63;;;12.20;;
8632;SDS011;4354;49.832;10.746;2023-03-01T15:55:41;16.10;;;12.50;;
8632;SDS011;4354;49.832;10.746;2023-03-01T15:58:24;17.53;;;12.93;;
8632;SDS011;4354;49.832;10.746;2023-03-01T16:00:52;15.50;;;11.50;;
8632;SDS011;4354;49.832;10.746;2023-03-01T16:03:27;14.67;;;11.00;;
8632;SDS011;4354;49.832;10.746;2023-03-01T16:05:55;15.27;;;11.30;;
8632;SDS011;4354;49.832;10.746;2023-03-01T16:08:22;15.83;;;11.40;;
8632;SDS011;4354;49.832;10.746;2023-03-01T16:10:49;15.50;;;12.40;;
8632;SDS011;4354;49.832;10.746;2023-03-01T16:13:17;15.27;;;11.30;;
8632;SDS011;4354;49.832;10.746;2023-03-01T16:15:45;14.47;;;12.40;;
8632;SDS011;4354;49.832;10.746;2023-03-01T16:18:12;18.23;;;12.57;;
8632;SDS011;4354;49.832;10.746;2023-03-01T16:20:39;16.27;;;12.13;;
8632;SDS011;4354;49.832;10.746;2023-03-01T16:23:07;17.23;;;13.10;;
8632;SDS011;4354;49.832;10.746;2023-03-01T16:25:36;15.43;;;11.97;;
8632;SDS011;4354;49.832;10.746;2023-03-01T16:28:04;16.30;;;12.10;;
8632;SDS011;4354;49.832;10.746;2023-03-01T16:30:36;18.70;;;12.27;;
8632;SDS011;4354;49.832;10.746;2023-03-01T16:33:04;16.57;;;12.33;;
8632;SDS011;4354;49.832;10.746;2023-03-01T16:35:52;16.73;;;12.40;;
8632;SDS011;4354;49.832;10.746;2023-03-01T16:38:19;17.73;;;13.20;;
8632;SDS011;4354;49.832;10.746;2023-03-01T16:40:47;18.00;;;13.43;;
8632;SDS011;4354;49.832;10.746;2023-03-01T16:43:15;16.10;;;12.53;;
8632;SDS011;4354;49.832;10.746;2023-03-01T16:45:42;18.80;;;14.13;;
8632;SDS011;4354;49.832;10.746;2023-03-01T16:48:11;18.27;;;13.30;;
8632;SDS011;4354;49.832;10.746;2023-03-01T16:50:38;18.97;;;12.90;;
8632;SDS011;4354;49.832;10.746;2023-03-01T16:53:05;17.53;;;13.07;;
8632;SDS011;4354;49.832;10.746;2023-03-01T16:55:32;18.77;;;12.90;;
8632;SDS011;4354;49.832;10.746;2023-03-01T16:57:59;20.13;;;14.17;;
8632;SDS011;4354;49.832;10.746;2023-03-01T17:00:27;17.80;;;13.93;;
8632;SDS011;4354;49.832;10.746;2023-03-01T17:02:54;20.17;;;14.90;;
8632;SDS011;4354;49.832;10.746;2023-03-01T17:05:21;20.47;;;15.40;;
8632;SDS011;4354;49.832;10.746;2023-03-01T17:07:50;21.23;;;16.13;;
8632;SDS011;4354;49.832;10.746;2023-03-01T17:10:17;23.13;;;15.57;;
8632;SDS011;4354;49.832;10.746;2023-03-01T17:12:47;23.40;;;16.47;;
8632;SDS011;4354;49.832;10.746;2023-03-01T17:15:15;22.70;;;16.20;;